Time;durP1;ratioP1;P1;durP2;ratioP2;P2;SDS_P1;SDS_P2;PMS_P1;PMS_P2;Temp;Humidity;BMP_temperature;BMP_pressure;BME280_temperature;BME280_humidity;BME280_pressure;Samples;Min_cycle;Max_cycle;Signal;HPM_P1;HPM_P2
2023/09/28 00:00:35;;;;;;;22.80;19.43;;;17.10;6.80;;;;;;5062873;28;20546;-90
2023/09/28 00:02:45;;;;;;;24.97;17.90;;;;;;;;;;5060174;28;20471;-90
2023/09/28 00:05:13;;;;;;;21.60;19.30;;;17.00;1.00;;;;;;5059158;28;20484;-90
2023/09/28 00:07:40;;;;;;;25.30;19.87;;;;;;;;;;5059663;28;20447;-90
2023/09/28 00:10:08;;;;;;;26.73;19.40;;;16.60;42.50;;;;;;5059678;28;20446;-90
2023/09/28 00:12:35;;;;;;;20.67;18.47;;;16.90;1.00;;;;;;5061165;28;20442;-90
2023/09/28 00:15:02;;;;;;;20.27;18.13;;;;;;;;;;5059334;28;20547;-90
2023/09/28 00:17:29;;;;;;;22.80;20.27;;;17.00;1.00;;;;;;5058627;28;20884;-90
2023/09/28 00:19:55;;;;;;;22.77;17.90;;;;;;;;;;5059069;28;20564;-90
2023/09/28 00:22:22;;;;;;;19.50;16.83;;;17.00;1.00;;;;;;5062001;28;20887;-91
2023/09/28 00:24:48;;;;;;;27.57;18.30;;;16.90;1.00;;;;;;5059441;28;21007;-90
2023/09/28 00:27:15;;;;;;;22.53;19.20;;;16.90;1.00;;;;;;5059850;28;20525;-90
2023/09/28 00:29:42;;;;;;;23.63;18.67;;;16.90;12.70;;;;;;5060357;28;20294;-90
2023/09/28 00:32:09;;;;;;;22.00;19.07;;;16.90;1.00;;;;;;5060144;28;20456;-90
2023/09/28 00:34:35;;;;;;;23.90;17.87;;;16.90;1.00;;;;;;5059646;28;20516;-90
2023/09/28 00:37:02;;;;;;;22.37;17.90;;;16.80;1.00;;;;;;5062322;28;20436;-91
2023/09/28 00:39:28;;;;;;;21.80;18.17;;;16.80;1.00;;;;;;5063362;28;20325;-90
2023/09/28 00:41:55;;;;;;;20.80;17.73;;;17.00;79.70;;;;;;5062362;28;20533;-90
2023/09/28 00:44:21;;;;;;;27.83;18.13;;;16.80;71.20;;;;;;5061227;28;20207;-90
2023/09/28 00:46:49;;;;;;;23.73;19.00;;;16.70;1.00;;;;;;5072895;28;20465;-90
2023/09/28 00:49:17;;;;;;;19.40;17.30;;;16.70;14.50;;;;;;5068851;28;20478;-90
2023/09/28 00:51:45;;;;;;;25.30;17.73;;;16.70;93.00;;;;;;5057985;28;20501;-91
2023/09/28 00:54:11;;;;;;;22.20;17.00;;;16.50;1.00;;;;;;5057520;28;20438;-90
2023/09/28 00:56:39;;;;;;;18.70;16.60;;;16.70;1.00;;;;;;5058404;28;20471;-90
2023/09/28 00:59:06;;;;;;;17.50;15.70;;;16.60;99.90;;;;;;5073362;28;20437;-89
2023/09/28 01:01:33;;;;;;;24.20;17.00;;;;;;;;;;5079490;28;20450;-90
2023/09/28 01:04:05;;;;;;;20.47;16.80;;;16.80;99.90;;;;;;5076895;28;20509;-90
2023/09/28 01:06:32;;;;;;;20.77;17.27;;;16.70;1.00;;;;;;5060879;28;20849;-90
2023/09/28 01:08:58;;;;;;;21.03;17.30;;;16.60;1.00;;;;;;5057781;28;20446;-91
2023/09/28 01:11:28;;;;;;;23.90;16.87;;;;;;;;;;5056901;28;20468;-90
2023/09/28 01:13:54;;;;;;;23.47;17.00;;;16.60;1.00;;;;;;5056671;28;20469;-90
2023/09/28 01:16:20;;;;;;;19.57;17.63;;;16.50;1.00;;;;;;5056868;28;20461;-90
2023/09/28 01:18:46;;;;;;;25.40;18.07;;;16.50;1.00;;;;;;5056417;28;20959;-91
2023/09/28 01:21:14;;;;;;;18.70;16.80;;;16.60;1.00;;;;;;5056939;28;20442;-90
2023/09/28 01:23:42;;;;;;;19.53;17.57;;;16.40;1.00;;;;;;5056504;28;20320;-90
2023/09/28 01:26:08;;;;;;;19.77;17.80;;;16.60;34.30;;;;;;5057298;28;20466;-90
2023/09/28 01:28:34;;;;;;;19.63;16.23;;;16.40;1.00;;;;;;5057795;28;20457;-90
2023/09/28 01:31:02;;;;;;;19.43;17.53;;;;;;;;;;5056755;28;20526;-90
2023/09/28 01:33:29;;;;;;;20.30;16.47;;;16.30;1.00;;;;;;5055957;28;20196;-90
2023/09/28 01:35:55;;;;;;;21.57;18.37;;;16.30;1.00;;;;;;5060596;28;20474;-89
2023/09/28 01:38:28;;;;;;;25.13;17.43;;;16.60;36.90;;;;;;5058908;28;20446;-90
2023/09/28 01:40:55;;;;;;;23.60;16.50;;;16.20;1.00;;;;;;5057837;28;20495;-90
2023/09/28 01:43:22;;;;;;;18.57;15.93;;;16.20;1.00;;;;;;5056529;28;20634;-90
2023/09/28 01:45:49;;;;;;;20.27;16.83;;;16.20;1.00;;;;;;5056352;28;21007;-90
2023/09/28 01:48:16;;;;;;;22.33;16.97;;;15.90;1.00;;;;;;5055768;28;20485;-90
2023/09/28 01:50:42;;;;;;;20.60;17.70;;;16.10;1.00;;;;;;5055814;28;20460;-90
2023/09/28 01:53:09;;;;;;;17.50;15.80;;;16.30;1.00;;;;;;5056652;28;20609;-90
2023/09/28 01:55:35;;;;;;;22.23;16.77;;;16.10;1.00;;;;;;5055709;28;20313;-90
2023/09/28 01:58:07;;;;;;;17.60;15.70;;;16.20;99.90;;;;;;5055688;28;20442;-90
2023/09/28 02:00:34;;;;;;;21.73;15.97;;;16.00;19.80;;;;;;5056034;28;20903;-90
2023/09/28 02:03:04;;;;;;;20.10;17.93;;;16.00;1.00;;;;;;5054751;28;20942;-90
2023/09/28 02:05:32;;;;;;;21.80;16.57;;;;;;;;;;5082337;22;20517;-85
2023/09/28 02:07:59;;;;;;;21.47;16.97;;;;;;;;;;5097371;28;20445;-85
2023/09/28 02:10:31;;;;;;;17.07;15.37;;;16.00;1.00;;;;;;5096023;28;20437;-86
2023/09/28 02:13:08;;;;;;;19.07;16.63;;;16.00;1.00;;;;;;5096847;28;20441;-86
2023/09/28 02:15:35;;;;;;;19.50;16.27;;;16.00;1.00;;;;;;5097438;28;20486;-85
2023/09/28 02:18:03;;;;;;;20.10;17.57;;;16.00;1.00;;;;;;5095159;28;20448;-86
2023/09/28 02:20:31;;;;;;;17.40;15.60;;;15.90;1.00;;;;;;5087780;28;20823;-86
2023/09/28 02:22:58;;;;;;;21.20;15.80;;;16.20;1.00;;;;;;5082840;28;20449;-86
2023/09/28 02:25:25;;;;;;;17.70;15.90;;;15.90;1.00;;;;;;5080961;28;20495;-86
2023/09/28 02:27:53;;;;;;;19.53;15.00;;;16.00;99.90;;;;;;5089588;28;20429;-86
2023/09/28 02:30:22;;;;;;;17.33;15.47;;;15.90;99.90;;;;;;5098658;28;20448;-86
2023/09/28 02:32:51;;;;;;;16.17;14.17;;;15.90;99.90;;;;;;5098758;28;20436;-85
2023/09/28 02:35:17;;;;;;;19.20;16.03;;;15.90;63.00;;;;;;5094672;28;20488;-86
2023/09/28 02:37:46;;;;;;;17.40;15.70;;;15.90;91.50;;;;;;5082604;28;20452;-86
2023/09/28 02:40:12;;;;;;;19.67;16.80;;;15.80;99.90;;;;;;5078064;28;20449;-86
2023/09/28 02:42:40;;;;;;;20.57;17.00;;;15.90;99.90;;;;;;5077905;28;20448;-86
2023/09/28 02:45:11;;;;;;;16.07;14.33;;;15.80;75.90;;;;;;5078330;28;20857;-86
2023/09/28 02:47:39;;;;;;;19.27;15.53;;;15.90;99.90;;;;;;5079094;28;20432;-86
2023/09/28 02:50:09;;;;;;;17.80;16.03;;;15.70;99.90;;;;;;5076520;28;20448;-86
2023/09/28 02:52:37;;;;;;;21.03;15.20;;;16.00;1.00;;;;;;5080606;28;20469;-85
2023/09/28 02:55:06;;;;;;;19.37;14.70;;;16.10;1.00;;;;;;5084313;28;20460;-86
2023/09/28 02:57:33;;;;;;;19.30;14.60;;;15.90;64.50;;;;;;5081418;28;20753;-86
2023/09/28 03:00:01;;;;;;;19.43;13.90;;;15.90;1.00;;;;;;5079543;28;20472;-86
2023/09/28 03:02:27;;;;;;;16.63;15.00;;;15.90;99.90;;;;;;5079688;28;20506;-86
2023/09/28 03:04:53;;;;;;;16.73;15.03;;;15.70;99.90;;;;;;5078223;28;20480;-86
2023/09/28 03:07:21;;;;;;;17.10;15.37;;;15.80;1.00;;;;;;5079304;28;20429;-86
2023/09/28 03:09:47;;;;;;;21.43;15.43;;;15.70;1.00;;;;;;5082405;28;20471;-86
2023/09/28 03:12:15;;;;;;;14.90;13.40;;;15.70;1.00;;;;;;5080046;28;20535;-86
2023/09/28 03:14:41;;;;;;;16.70;14.47;;;16.60;1.00;;;;;;5077998;28;20456;-86
2023/09/28 03:17:08;;;;;;;17.30;13.70;;;15.80;99.90;;;;;;5079568;28;20899;-86
2023/09/28 03:19:34;;;;;;;15.97;13.90;;;15.80;1.00;;;;;;5092930;28;20445;-86
2023/09/28 03:22:01;;;;;;;17.00;15.20;;;15.70;99.90;;;;;;5098546;28;20466;-86
2023/09/28 03:24:28;;;;;;;16.73;13.63;;;15.80;29.90;;;;;;5101575;28;20540;-86
2023/09/28 03:26:55;;;;;;;15.00;13.40;;;15.70;99.90;;;;;;5101370;28;20449;-86
2023/09/28 03:29:21;;;;;;;16.43;13.10;;;16.50;99.90;;;;;;5100473;28;20475;-85
2023/09/28 03:31:51;;;;;;;15.50;13.90;;;15.70;1.00;;;;;;5097625;28;20444;-86
2023/09/28 03:34:17;;;;;;;16.23;13.80;;;15.60;99.90;;;;;;5098282;28;20249;-85
2023/09/28 03:36:43;;;;;;;15.20;13.80;;;15.50;99.90;;;;;;5100887;28;20511;-85
2023/09/28 03:39:11;;;;;;;17.27;15.50;;;15.50;1.00;;;;;;5101493;28;20262;-86
2023/09/28 03:41:39;;;;;;;14.93;13.27;;;15.50;81.20;;;;;;5090826;28;20435;-86
2023/09/28 03:44:07;;;;;;;18.00;13.87;;;15.40;1.00;;;;;;5085746;28;20548;-86
2023/09/28 03:46:34;;;;;;;19.70;14.87;;;15.40;99.90;;;;;;5084345;28;20909;-86
2023/09/28 03:49:15;;;;;;;15.80;14.30;;;15.50;1.00;;;;;;5091667;28;20431;-85
2023/09/28 03:52:02;;;;;;;15.77;14.13;;;15.20;15.80;;;;;;5101391;28;20459;-85
2023/09/28 03:54:49;;;;;;;17.30;13.97;;;15.30;37.00;;;;;;5086030;28;20433;-84
2023/09/28 03:57:32;;;;;;;22.73;13.70;;;15.30;1.00;;;;;;5084599;28;20433;-86
2023/09/28 04:00:17;;;;;;;16.03;13.60;;;15.30;22.90;;;;;;5094016;28;20511;-86
2023/09/28 04:03:00;;;;;;;16.37;14.17;;;15.20;64.80;;;;;;5087304;28;20425;-86
2023/09/28 04:05:51;;;;;;;16.13;13.97;;;15.20;99.90;;;;;;5079725;28;20514;-86
2023/09/28 04:08:52;;;;;;;15.40;13.73;;;15.20;99.90;;;;;;5079385;28;20492;-86
2023/09/28 04:11:37;;;;;;;17.50;14.10;;;15.10;99.90;;;;;;5047913;28;20464;-86
2023/09/28 04:14:23;;;;;;;15.63;13.93;;;15.10;99.90;;;;;;5081169;28;20437;-86
2023/09/28 04:17:24;;;;;;;18.43;14.70;;;15.10;99.90;;;;;;5079568;28;20475;-86
2023/09/28 04:20:04;;;;;;;17.03;14.37;;;15.10;99.90;;;;;;5082504;28;20452;-86
2023/09/28 04:22:45;;;;;;;15.37;13.77;;;15.10;99.90;;;;;;5087996;28;20475;-86
2023/09/28 04:25:21;;;;;;;18.60;14.73;;;15.10;99.90;;;;;;5091679;28;20504;-85
2023/09/28 04:27:51;;;;;;;16.07;14.40;;;;;;;;;;5092320;28;20448;-85
2023/09/28 04:33:14;;;;;;;19.43;14.80;;;;;;;;;;5078902;28;20501;-86
2023/09/28 04:35:48;;;;;;;19.50;14.73;;;;;;;;;;5082343;28;20948;-86
2023/09/28 04:38:16;;;;;;;17.03;15.13;;;;;;;;;;5081846;28;20447;-86
2023/09/28 04:41:13;;;;;;;30.33;14.47;;;15.10;99.90;;;;;;5081472;28;20452;-86
2023/09/28 04:44:17;;;;;;;15.90;14.37;;;15.00;99.90;;;;;;5075484;28;20449;-86
2023/09/28 04:47:22;;;;;;;24.67;15.50;;;15.00;99.90;;;;;;5083669;28;20488;-86
2023/09/28 04:50:00;;;;;;;17.03;13.43;;;15.00;1.00;;;;;;5086793;28;20456;-86
2023/09/28 04:52:36;;;;;;;15.80;14.20;;;15.00;99.90;;;;;;5083192;28;20820;-86
2023/09/28 04:55:33;;;;;;;23.03;14.50;;;15.00;99.90;;;;;;5082503;28;20507;-86
2023/09/28 04:58:19;;;;;;;19.77;15.07;;;15.00;99.90;;;;;;5080917;28;20475;-86
2023/09/28 05:03:51;;;;;;;18.00;15.47;;;;;;;;;;5080174;28;20449;-86
2023/09/28 05:06:20;;;;;;;16.00;14.47;;;;;;;;;;5082581;28;20571;-86
2023/09/28 05:09:23;;;;;;;;;;;;;;;;;;;;;
2023/09/28 05:12:16;;;;;;;19.40;14.40;;;15.10;1.00;;;;;;5083154;28;20436;-86
2023/09/28 05:18:11;;;;;;;16.97;15.17;;;15.20;99.90;;;;;;5091718;28;20449;-86
2023/09/28 05:24:11;;;;;;;21.00;14.90;;;15.40;99.90;;;;;;5081692;28;20443;-86
2023/09/28 05:27:03;;;;;;;;;;;;;;;;;;;;;
2023/09/28 05:30:12;;;;;;;22.83;13.40;;;15.30;29.20;;;;;;5085356;28;20448;-86
2023/09/28 05:43:20;;;;;;;19.50;13.83;;;15.20;99.90;;;;;;4961501;28;20453;-86
2023/09/28 05:49:09;;;;;;;18.80;14.53;;;15.40;99.90;;;;;;4891292;29;20446;-86
2023/09/28 06:01:30;;;;;;;17.30;15.43;;;15.40;99.90;;;;;;5000599;28;20471;-86
2023/09/28 06:08:20;;;;;;;;;;;;;;;;;;;;;
2023/09/28 06:14:02;;;;;;;17.47;15.30;;;;;;;;;;5078885;28;20429;-88
2023/09/28 06:16:40;;;;;;;16.60;14.37;;;;;;;;;;5077802;28;20444;-87
2023/09/28 06:19:26;;;;;;;23.17;16.07;;;;;;;;;;5085668;22;20526;-87
2023/09/28 06:22:52;;;;;;;;;;;;;;;;;;;;;
2023/09/28 06:25:44;;;;;;;19.93;14.90;;;;;;;;;;4998099;28;20479;-87
2023/09/28 06:28:31;;;;;;;20.93;15.57;;;;;;;;;;5034504;28;20449;-88
2023/09/28 06:31:01;;;;;;;18.93;15.40;;;;;;;;;;5058135;28;20503;-89
2023/09/28 06:33:46;;;;;;;19.60;14.90;;;16.10;82.60;;;;;;5057518;28;20967;-88
2023/09/28 06:36:20;;;;;;;20.30;14.20;;;;;;;;;;5058769;28;20941;-88
2023/09/28 06:38:54;;;;;;;15.00;13.50;;;;;;;;;;5058991;28;20473;-88
2023/09/28 06:44:34;;;;;;;17.53;13.67;;;;;;;;;;5044197;28;20485;-88
2023/09/28 06:47:10;;;;;;;22.23;14.53;;;16.30;1.00;;;;;;5061834;28;20453;-87
2023/09/28 06:49:41;;;;;;;20.50;14.43;;;;;;;;;;5058152;28;20457;-87
2023/09/28 06:52:16;;;;;;;17.63;14.93;;;;;;;;;;5061165;28;20424;-87
2023/09/28 06:54:48;;;;;;;19.90;14.93;;;;;;;;;;5070204;28;20456;-88
2023/09/28 07:00:22;;;;;;;15.80;13.30;;;;;;;;;;5057243;28;20466;-87
2023/09/28 07:02:59;;;;;;;19.30;15.93;;;;;;;;;;5056746;28;20457;-88
2023/09/28 07:08:47;;;;;;;31.00;17.90;;;;;;;;;;5055921;28;20466;-88
2023/09/28 07:11:24;;;;;;;23.73;15.87;;;;;;;;;;5056102;28;20434;-88
2023/09/28 07:14:09;;;;;;;29.00;15.33;;;16.90;99.90;;;;;;5076830;28;20453;-88
2023/09/28 07:23:10;;;;;;;16.77;15.17;;;;;;;;;;5059928;28;20437;-88
2023/09/28 07:25:50;;;;;;;18.50;15.03;;;;;;;;;;5077757;28;20466;-87
2023/09/28 07:28:28;;;;;;;17.67;15.17;;;;;;;;;;5074748;28;20449;-88
2023/09/28 07:31:20;;;;;;;16.13;14.47;;;17.40;76.80;;;;;;5063245;28;20450;-88
2023/09/28 07:33:53;;;;;;;22.60;17.27;;;;;;;;;;5057406;28;20458;-88
2023/09/28 07:36:41;;;;;;;19.77;13.67;;;;;;;;;;5058982;28;20422;-88
2023/09/28 07:39:29;;;;;;;15.70;14.00;;;17.60;99.90;;;;;;5059202;28;20474;-88
2023/09/28 07:42:08;;;;;;;21.20;15.30;;;17.60;99.90;;;;;;5058986;28;20800;-88
2023/09/28 07:44:53;;;;;;;;;;;;;;;;;;;;;
2023/09/28 07:47:43;;;;;;;17.93;16.03;;;17.70;99.90;;;;;;5073112;28;20446;-88
2023/09/28 07:50:14;;;;;;;18.33;13.60;;;17.80;1.00;;;;;;5074102;28;20452;-88
2023/09/28 07:52:49;;;;;;;16.63;14.43;;;17.90;1.00;;;;;;5077360;28;20448;-88
2023/09/28 07:55:32;;;;;;;15.80;14.10;;;17.90;99.90;;;;;;5077650;28;20427;-88
2023/09/28 07:58:02;;;;;;;29.60;16.50;;;;;;;;;;5077705;28;20461;-88
2023/09/28 08:00:41;;;;;;;19.43;16.53;;;;;;;;;;5077419;28;20459;-88
2023/09/28 08:03:09;;;;;;;21.70;15.50;;;18.10;1.00;;;;;;5077587;28;20443;-88
2023/09/28 08:05:36;;;;;;;17.53;15.73;;;;;;;;;;5079603;28;20470;-87
2023/09/28 08:08:05;;;;;;;14.40;12.10;;;;;;;;;;5077552;28;20455;-87
2023/09/28 08:10:33;;;;;;;19.27;15.60;;;;;;;;;;5077431;28;20435;-87
2023/09/28 08:13:00;;;;;;;18.43;15.47;;;;;;;;;;5066974;28;20511;-89
2023/09/28 08:15:31;;;;;;;20.70;16.90;;;;;;;;;;5075347;28;20482;-86
2023/09/28 08:18:00;;;;;;;16.67;14.87;;;;;;;;;;5071698;28;20486;-87
2023/09/28 08:20:28;;;;;;;17.17;14.53;;;18.60;99.90;;;;;;5067352;28;20485;-87
2023/09/28 08:22:55;;;;;;;15.90;14.40;;;18.70;99.90;;;;;;5065307;28;20473;-88
2023/09/28 08:25:24;;;;;;;18.67;15.20;;;18.80;95.70;;;;;;5069077;28;20481;-87
2023/09/28 08:27:51;;;;;;;17.87;15.83;;;;;;;;;;5074625;28;20467;-87
2023/09/28 08:30:18;;;;;;;16.77;14.80;;;19.00;99.90;;;;;;5064382;28;20477;-87
2023/09/28 08:32:45;;;;;;;14.77;13.40;;;19.00;99.90;;;;;;5068046;28;20483;-89
2023/09/28 08:35:12;;;;;;;17.47;14.30;;;19.20;1.00;;;;;;5066563;28;20448;-88
2023/09/28 08:37:40;;;;;;;17.60;15.90;;;20.00;99.90;;;;;;5065099;28;20446;-87
2023/09/28 08:40:09;;;;;;;19.27;17.27;;;19.70;1.00;;;;;;5063846;28;20470;-88
2023/09/28 08:42:39;;;;;;;17.23;14.43;;;19.80;99.90;;;;;;5060534;28;20468;-88
2023/09/28 08:45:12;;;;;;;15.57;14.10;;;19.70;99.90;;;;;;5062326;28;20476;-88
2023/09/28 08:47:48;;;;;;;16.40;13.73;;;19.90;1.00;;;;;;5064719;28;20823;-88
2023/09/28 08:50:23;;;;;;;14.70;13.30;;;20.30;95.10;;;;;;5063617;28;20457;-88
2023/09/28 08:52:54;;;;;;;15.73;14.20;;;20.00;1.00;;;;;;5062818;28;20445;-88
2023/09/28 08:55:22;;;;;;;16.03;14.40;;;20.10;1.00;;;;;;5063243;28;20450;-88
2023/09/28 08:57:51;;;;;;;15.33;13.70;;;20.10;1.00;;;;;;5077274;28;20449;-87
2023/09/28 09:00:36;;;;;;;17.20;14.70;;;20.00;1.00;;;;;;5074671;28;20507;-88
2023/09/28 09:07:18;;;;;;;15.30;12.57;;;20.30;1.00;;;;;;5074009;28;20540;-88
2023/09/28 09:17:33;;;;;;;14.57;13.07;;;20.50;99.90;;;;;;4839753;29;20492;-89
2023/09/28 09:31:12;;;;;;;15.80;13.03;;;20.80;99.90;;;;;;4957094;29;20453;-88
2023/09/28 09:47:25;;;;;;;16.53;11.33;;;21.40;99.90;;;;;;4931340;28;20493;-88
2023/09/28 09:49:55;;;;;;;16.17;14.40;;;21.50;99.90;;;;;;4952485;28;20561;-88
2023/09/28 09:52:25;;;;;;;14.00;12.60;;;21.50;99.90;;;;;;4996912;28;20468;-88
2023/09/28 09:54:55;;;;;;;15.03;11.70;;;;;;;;;;5066185;28;20441;-87
2023/09/28 09:57:35;;;;;;;19.00;13.20;;;21.60;99.90;;;;;;5073399;28;20462;-88
2023/09/28 10:00:18;;;;;;;13.00;11.77;;;;;;;;;;5317465;22;20542;-90
2023/09/28 10:03:32;;;;;;;15.30;13.37;;;21.70;63.50;;;;;;5079025;28;20425;-88
2023/09/28 10:07:00;;;;;;;16.60;12.50;;;21.80;17.30;;;;;;5076485;28;20564;-88
2023/09/28 10:09:32;;;;;;;13.20;11.80;;;21.90;1.00;;;;;;5054360;28;20468;-89
2023/09/28 10:15:07;;;;;;;15.10;11.50;;;22.00;1.00;;;;;;5093854;22;20493;-90
2023/09/28 10:17:34;;;;;;;11.33;10.23;;;22.10;99.90;;;;;;5084182;28;20941;-91
2023/09/28 10:20:02;;;;;;;13.40;12.07;;;;;;;;;;5081241;28;20473;-90
2023/09/28 10:22:30;;;;;;;12.03;10.40;;;22.20;99.90;;;;;;5080817;28;20448;-90
2023/09/28 10:25:00;;;;;;;11.27;10.10;;;22.30;99.90;;;;;;5078924;28;20877;-90
2023/09/28 10:27:27;;;;;;;12.43;11.20;;;;;;;;;;5079433;28;20869;-91
2023/09/28 10:30:19;;;;;;;14.73;10.30;;;22.80;1.00;;;;;;5087624;28;20444;-90
2023/09/28 10:32:46;;;;;;;11.10;10.10;;;;;;;;;;5079790;28;20571;-90
2023/09/28 10:35:28;;;;;;;9.47;8.57;;;22.60;92.10;;;;;;5083070;28;20460;-89
2023/09/28 10:38:21;;;;;;;10.17;7.93;;;22.70;99.90;;;;;;5083820;28;20842;-90
2023/09/28 10:41:06;;;;;;;10.47;9.23;;;22.70;52.10;;;;;;5080259;28;20437;-90
2023/09/28 10:43:34;;;;;;;10.13;9.13;;;22.80;99.90;;;;;;5083376;28;20457;-89
2023/09/28 10:46:03;;;;;;;9.73;8.83;;;22.80;37.50;;;;;;5079514;28;20516;-89
2023/09/28 10:48:33;;;;;;;10.23;8.60;;;22.50;99.90;;;;;;5080756;28;20429;-90
2023/09/28 10:51:01;;;;;;;8.77;7.87;;;;;;;;;;5082534;28;20430;-89
2023/09/28 10:53:29;;;;;;;7.80;6.27;;;;;;;;;;5084344;28;20507;-90
2023/09/28 10:55:56;;;;;;;7.13;6.53;;;;;;;;;;5079611;28;20876;-90
2023/09/28 10:58:24;;;;;;;8.33;7.53;;;22.90;1.00;;;;;;5079061;28;20503;-90
2023/09/28 11:00:51;;;;;;;9.57;6.90;;;23.00;1.00;;;;;;5080545;28;20445;-90
2023/09/28 11:03:18;;;;;;;9.20;7.67;;;23.20;99.90;;;;;;5080430;28;20815;-90
2023/09/28 11:05:46;;;;;;;10.03;6.87;;;;;;;;;;5090405;28;20506;-90
2023/09/28 11:08:14;;;;;;;6.90;6.30;;;;;;;;;;5079784;28;20443;-90
2023/09/28 11:10:42;;;;;;;8.00;6.10;;;23.20;1.00;;;;;;5077885;28;20452;-90
2023/09/28 11:13:09;;;;;;;8.30;7.23;;;23.20;1.00;;;;;;5078265;28;20446;-90
2023/09/28 11:15:37;;;;;;;8.37;7.57;;;23.20;1.00;;;;;;5078110;28;20490;-91
2023/09/28 11:18:09;;;;;;;7.53;6.83;;;23.20;1.00;;;;;;5088606;28;20427;-90
2023/09/28 11:20:37;;;;;;;6.53;5.93;;;;;;;;;;5098143;28;20446;-90
2023/09/28 11:23:04;;;;;;;7.90;7.20;;;23.10;99.90;;;;;;5098084;28;20457;-90
2023/09/28 11:25:32;;;;;;;7.47;6.77;;;23.40;1.00;;;;;;5096021;28;20479;-90
2023/09/28 11:27:59;;;;;;;5.53;5.07;;;;;;;;;;5080509;28;20457;-90
2023/09/28 11:30:27;;;;;;;5.20;4.80;;;;;;;;;;5080018;28;20438;-89
2023/09/28 11:32:55;;;;;;;5.90;5.40;;;23.60;1.00;;;;;;5078231;28;20514;-89
2023/09/28 11:35:25;;;;;;;9.70;6.13;;;23.60;1.00;;;;;;5080233;28;20550;-90
2023/09/28 11:37:53;;;;;;;6.43;5.93;;;23.60;1.00;;;;;;5077963;28;20487;-90
2023/09/28 11:40:21;;;;;;;6.87;6.27;;;23.60;1.00;;;;;;5081408;28;20456;-89
2023/09/28 11:42:49;;;;;;;10.57;9.33;;;;;;;;;;5086393;28;20480;-89
2023/09/28 11:45:18;;;;;;;8.13;7.33;;;23.70;99.90;;;;;;5092610;28;20477;-90
2023/09/28 11:47:48;;;;;;;14.17;9.40;;;23.70;1.00;;;;;;5084340;28;20470;-90
2023/09/28 11:50:18;;;;;;;7.30;6.40;;;23.80;1.00;;;;;;5086106;28;20457;-91
2023/09/28 11:52:46;;;;;;;7.07;6.37;;;23.80;1.00;;;;;;5087091;28;20804;-90
2023/09/28 11:55:14;;;;;;;9.50;6.43;;;23.90;1.00;;;;;;5081285;28;20503;-91
2023/09/28 11:57:43;;;;;;;7.53;6.80;;;24.00;1.00;;;;;;5082658;28;20471;-90
2023/09/28 12:00:18;;;;;;;7.53;6.77;;;24.00;1.00;;;;;;5093712;28;20437;-89
2023/09/28 12:02:45;;;;;;;10.00;9.10;;;;;;;;;;5098729;28;20427;-89
2023/09/28 12:05:12;;;;;;;7.70;7.00;;;24.60;1.00;;;;;;5088226;28;20483;-89
2023/09/28 12:07:41;;;;;;;8.40;7.00;;;24.20;1.00;;;;;;5082712;28;20501;-90
2023/09/28 12:10:10;;;;;;;10.50;7.63;;;24.20;1.00;;;;;;5081615;28;20452;-90
2023/09/28 12:12:37;;;;;;;9.33;6.20;;;24.30;1.00;;;;;;5084567;28;20503;-90
2023/09/28 12:15:07;;;;;;;6.67;6.07;;;23.80;99.90;;;;;;5084034;28;20989;-89
2023/09/28 12:17:34;;;;;;;8.27;7.43;;;24.20;1.00;;;;;;5082721;28;20441;-90
2023/09/28 12:20:02;;;;;;;6.97;6.37;;;;;;;;;;5083534;28;20823;-90
2023/09/28 12:22:35;;;;;;;7.10;6.20;;;24.20;1.00;;;;;;5089021;28;20441;-89
2023/09/28 12:25:05;;;;;;;10.63;6.80;;;24.30;1.00;;;;;;5087627;28;20564;-89
2023/09/28 12:27:32;;;;;;;8.77;7.97;;;24.30;1.00;;;;;;5094725;28;20490;-90
2023/09/28 12:30:00;;;;;;;7.63;6.83;;;24.10;99.90;;;;;;5100671;28;20429;-89
2023/09/28 12:32:26;;;;;;;10.50;7.37;;;24.40;1.00;;;;;;5100583;28;20445;-89
2023/09/28 12:34:54;;;;;;;9.30;8.13;;;;;;;;;;5082099;28;20519;-90
2023/09/28 12:37:21;;;;;;;9.57;8.57;;;25.30;4.30;;;;;;5080766;28;20448;-89
2023/09/28 12:39:53;;;;;;;8.83;8.03;;;;;;;;;;5082192;28;20482;-90
2023/09/28 12:42:23;;;;;;;8.87;7.97;;;24.50;1.00;;;;;;5080512;28;20443;-91
2023/09/28 12:44:51;;;;;;;13.17;8.27;;;;;;;;;;5081977;28;20555;-90
2023/09/28 12:47:20;;;;;;;8.43;7.80;;;;;;;;;;5080803;28;20481;-91
2023/09/28 12:49:47;;;;;;;8.80;7.87;;;;;;;;;;5081087;28;20548;-90
2023/09/28 12:52:18;;;;;;;12.33;9.00;;;25.00;99.90;;;;;;5083384;28;20438;-92
2023/09/28 12:54:46;;;;;;;9.97;9.03;;;24.90;1.00;;;;;;5081189;28;20556;-90
2023/09/28 12:57:13;;;;;;;8.67;7.90;;;24.80;1.00;;;;;;5083238;28;20445;-90
2023/09/28 12:59:42;;;;;;;12.57;7.30;;;24.80;99.90;;;;;;5084903;28;20441;-90
2023/09/28 13:02:08;;;;;;;8.67;7.77;;;25.30;99.90;;;;;;5084177;28;20478;-90
2023/09/28 13:04:36;;;;;;;8.37;7.57;;;;;;;;;;5086282;28;20468;-91
2023/09/28 13:07:03;;;;;;;9.60;8.63;;;24.80;1.00;;;;;;5085471;28;20485;-90
2023/09/28 13:09:32;;;;;;;9.87;8.87;;;24.80;99.90;;;;;;5086396;28;20445;-90
2023/09/28 13:12:12;;;;;;;7.17;6.60;;;24.90;99.90;;;;;;5087829;28;20424;-90
2023/09/28 13:14:39;;;;;;;9.20;8.40;;;24.70;1.00;;;;;;5097373;28;20472;-90
2023/09/28 13:17:07;;;;;;;11.00;9.10;;;24.70;86.20;;;;;;5097239;28;20857;-90
2023/09/28 13:19:36;;;;;;;8.80;8.10;;;24.60;1.00;;;;;;5087979;28;20452;-91
2023/09/28 13:22:03;;;;;;;8.33;6.73;;;;;;;;;;5098850;28;20520;-91
2023/09/28 13:24:32;;;;;;;9.50;7.93;;;;;;;;;;5099183;28;20473;-90
2023/09/28 13:27:01;;;;;;;12.70;8.43;;;;;;;;;;5098885;28;20471;-90
2023/09/28 13:29:29;;;;;;;8.90;7.97;;;;;;;;;;5098490;28;20469;-89
2023/09/28 13:31:56;;;;;;;8.40;7.60;;;24.50;1.00;;;;;;5099452;28;20436;-89
2023/09/28 13:34:25;;;;;;;8.70;7.87;;;24.70;99.90;;;;;;5099260;28;20483;-89
2023/09/28 13:36:53;;;;;;;11.77;8.47;;;;;;;;;;5099527;28;20451;-90
2023/09/28 13:39:27;;;;;;;8.93;8.07;;;;;;;;;;5098677;28;20554;-90
2023/09/28 13:41:57;;;;;;;8.20;7.40;;;;;;;;;;5099028;28;20416;-90
2023/09/28 13:44:24;;;;;;;9.20;8.40;;;;;;;;;;5096242;28;20460;-90
2023/09/28 13:46:53;;;;;;;10.10;8.00;;;;;;;;;;5089569;28;20996;-90
2023/09/28 13:49:21;;;;;;;8.53;7.70;;;24.50;1.00;;;;;;5088762;28;20506;-90
2023/09/28 13:51:49;;;;;;;8.93;7.83;;;24.70;1.00;;;;;;5089511;28;20452;-90
2023/09/28 13:54:18;;;;;;;9.67;7.43;;;24.40;1.00;;;;;;5092270;28;20579;-90
2023/09/28 13:56:46;;;;;;;8.87;7.40;;;;;;;;;;5090220;28;20449;-90
2023/09/28 13:59:14;;;;;;;10.23;9.20;;;;;;;;;;5091338;28;20491;-90
2023/09/28 14:01:43;;;;;;;9.00;8.20;;;;;;;;;;5087124;28;20445;-90
2023/09/28 14:04:12;;;;;;;11.20;10.10;;;;;;;;;;5084352;28;20490;-90
2023/09/28 14:06:39;;;;;;;8.30;7.50;;;24.30;1.00;;;;;;5081606;28;21012;-90
2023/09/28 14:09:11;;;;;;;9.17;8.30;;;24.40;1.00;;;;;;5081111;28;20445;-90
2023/09/28 14:11:39;;;;;;;9.77;8.77;;;24.40;1.00;;;;;;5081448;28;20436;-89
2023/09/28 14:14:07;;;;;;;8.80;7.73;;;24.40;1.00;;;;;;5081048;28;20475;-90
2023/09/28 14:16:34;;;;;;;8.70;7.90;;;;;;;;;;5086298;28;20486;-89
2023/09/28 14:19:02;;;;;;;9.10;8.30;;;;;;;;;;5090417;28;20547;-90
2023/09/28 14:21:30;;;;;;;8.30;7.57;;;;;;;;;;5083525;28;20817;-90
2023/09/28 14:23:59;;;;;;;8.70;7.90;;;;;;;;;;5082086;28;20497;-90
2023/09/28 14:26:27;;;;;;;8.30;7.50;;;24.40;1.00;;;;;;5090230;28;20459;-90
2023/09/28 14:28:55;;;;;;;8.33;7.27;;;;;;;;;;5091317;28;20448;-90
2023/09/28 14:31:22;;;;;;;7.30;6.60;;;24.30;1.00;;;;;;5091018;28;20444;-90
2023/09/28 14:34:01;;;;;;;8.43;7.50;;;;;;;;;;5082803;28;20868;-90
2023/09/28 14:36:29;;;;;;;9.43;7.90;;;;;;;;;;5080424;28;20620;-90
2023/09/28 14:38:56;;;;;;;9.97;6.40;;;;;;;;;;5087058;28;20476;-90
2023/09/28 14:41:24;;;;;;;7.90;7.20;;;24.30;1.00;;;;;;5083762;28;20512;-90
2023/09/28 14:43:55;;;;;;;10.27;7.47;;;24.20;1.00;;;;;;5082562;28;20473;-90
2023/09/28 14:46:23;;;;;;;8.20;7.40;;;;;;;;;;5080523;28;20436;-90
2023/09/28 14:48:50;;;;;;;14.33;7.90;;;;;;;;;;5082569;28;20488;-90
2023/09/28 14:51:17;;;;;;;11.23;8.53;;;;;;;;;;5081269;28;20543;-90
2023/09/28 14:53:45;;;;;;;8.00;7.27;;;;;;;;;;5080347;28;20465;-90
2023/09/28 14:56:13;;;;;;;9.27;8.37;;;;;;;;;;5079876;28;20449;-90
2023/09/28 14:58:40;;;;;;;8.63;7.80;;;;;;;;;;5081209;28;20440;-90
2023/09/28 15:01:09;;;;;;;9.60;8.00;;;;;;;;;;5093118;28;20443;-90
2023/09/28 15:03:36;;;;;;;10.30;7.90;;;;;;;;;;5097455;28;20468;-90
2023/09/28 15:06:04;;;;;;;8.20;7.40;;;23.90;1.00;;;;;;5097659;28;20465;-90
2023/09/28 15:08:32;;;;;;;7.23;6.53;;;;;;;;;;5097620;28;20472;-89
2023/09/28 15:11:00;;;;;;;10.23;8.60;;;;;;;;;;5097914;28;20504;-89
2023/09/28 15:13:27;;;;;;;8.33;7.53;;;;;;;;;;5084654;28;20455;-90
2023/09/28 15:15:54;;;;;;;13.50;7.70;;;23.90;99.90;;;;;;5087265;28;20535;-90
2023/09/28 15:18:22;;;;;;;9.00;8.17;;;23.80;1.00;;;;;;5086156;28;20440;-90